• Join FlightAware (Why Join?)
  • Login
  • US Flag 
09:57AM EDT


 

Airport Tracker/Info


-or-


 

Live Flight TrackerFlight Track Log ✈ UAL1202 ✈ 06-Jun-2013 ✈ KIAH - KDEN

Flight Track Log - Related Links

Times and Time Zones

All times are in EDT time to prevent confusion due to time zone crossing. See the UAL1202 flight status page for this flight to view local times or setup timezone preferences in your user account.

Time Position Orientation Groundspeed Altitude Reporting Facility
EDT Latitude Longitude Course Direction KTS MPH feet Rate Location/Type
10:52PM 29.9406 -95.3405 165° South 193 222 1,500  Level FlightAware ADS-B
10:52PM 29.9364 -95.3418 195° South 200 230 1,600 1,500 Climbing FlightAware ADS-B
10:52PM 29.9336 -95.3432 203° Southwest 205 236 1,700 1,680 Climbing FlightAware ADS-B
10:52PM 29.9302 -95.3454 209° Southwest 210 242 1,800 1,080 Climbing FlightAware ADS-B
10:52PM 29.9254 -95.3500 220° Southwest 220 253 1,900 1,200 Climbing FlightAware ADS-B
10:52PM 29.9201 -95.3581 233° Southwest 233 268 2,100 1,500 Climbing FlightAware ADS-B
10:52PM 29.9182 -95.3628 245° Southwest 238 274 2,200 840 Climbing FlightAware ADS-B
10:52PM 29.9170 -95.3666 250° West 243 280 2,200  Level FlightAware ADS-B
10:52PM 29.9161 -95.3705 255° West 248 285 2,200 960 Level FlightAware ADS-B
10:52PM 29.9156 -95.3744 262° West 252 290 2,300 1,500 Climbing FlightAware ADS-B
10:52PM 29.9154 -95.3815 268° West 260 299 2,400 1,980 Climbing FlightAware ADS-B
10:52PM 29.9167 -95.3909 279° West 259 298 2,700 2,700 Climbing FlightAware ADS-B
10:52PM 29.9181 -95.3959 288° West 253 291 2,900 3,720 Climbing FlightAware ADS-B
10:53PM 29.9201 -95.4009 295° West 247 284 3,200 4,500 Climbing FlightAware ADS-B
10:53PM 29.9224 -95.4054 301° West 241 277 3,500 3,300 Climbing FlightAware ADS-B
10:53PM 29.9257 -95.4103 308° West 239 275 3,700 3,000 Climbing FlightAware ADS-B
10:53PM 29.9292 -95.4142 316° Northwest 238 274 4,000 3,000 Climbing FlightAware ADS-B
10:53PM 29.9323 -95.4169 323° Northwest 238 274 4,100 720 Climbing FlightAware ADS-B
10:53PM 29.9365 -95.4199 328° Northwest 240 276 4,100  Level FlightAware ADS-B
10:53PM 29.9398 -95.4218 333° Northwest 241 277 4,100  Level FlightAware ADS-B
10:53PM 29.9438 -95.4235 340° North 242 278 4,100  Level FlightAware ADS-B
10:53PM 29.9509 -95.4253 348° North 242 278 4,100 660 Level FlightAware ADS-B
10:53PM 29.9621 -95.4271 352° North 237 273 4,300 1,500 Climbing FlightAware ADS-B
10:53PM 29.9719 -95.4289 350° North 238 274 4,600 1,800 Climbing FlightAware ADS-B
10:54PM 29.9765 -95.4303 345° North 242 278 4,700 1,500 Climbing FlightAware ADS-B
10:54PM 29.9850 -95.4336 341° North 253 291 4,900 2,880 Climbing FlightAware ADS-B
10:54PM 30.0352 -95.4531 342° North 264 304 7,200 3,360 Climbing FlightAware ADS-B
10:55PM 30.0881 -95.4738 341° North 263 303 9,900 3,000 Climbing FlightAware ADS-B
10:56PM 30.1251 -95.4886 341° North 285 328 11,000 2,100 Climbing FlightAware ADS-B
10:57PM 30.2097 -95.5222 341° North 325 374 13,200 2,400 Climbing FlightAware ADS-B
10:57PM 30.2662 -95.5446 341° North 334 384 15,100 2,700 Climbing FlightAware ADS-B
10:58PM 30.3274 -95.5690 341° North 344 396 16,800 2,520 Climbing FlightAware ADS-B
10:59PM 30.3767 -95.5887 341° North 349 402 18,200 2,460 Climbing FlightAware ADS-B
10:59PM 30.4233 -95.6073 341° North 356 410 19,400 2,280 Climbing FlightAware ADS-B
11:00PM 30.5198 -95.6457 341° North 371 427 21,700 2,100 Climbing FlightAware ADS-B
11:01PM 30.5930 -95.6827 335° Northwest 383 441 23,200 1,860 Climbing FlightAware ADS-B
11:01PM 30.6420 -95.7089 335° Northwest 391 450 24,100 1,620 Climbing FlightAware ADS-B
11:02PM 30.7448 -95.7640 335° Northwest 409 471 25,700 1,560 Climbing FlightAware ADS-B
11:03PM 30.8511 -95.8210 335° Northwest 422 486 27,300 1,440 Climbing FlightAware ADS-B
11:05PM 31.0747 -95.9414 335° Northwest 443 510 30,100 1,260 Climbing FlightAware ADS-B
11:07PM 31.2150 -96.0040 341° North 457 526 31,600 1,140 Climbing FlightAware
11:07PM 31.2529 -96.0181 342° North 461 531 31,900 1,320 Climbing FlightAware ADS-B
11:07PM 31.3183 -96.0434 342° North 462 532 32,700 1,320 Climbing FlightAware ADS-B
11:08PM 31.4400 -96.0907 342° North 461 531 34,000 1,380 Climbing FlightAware ADS-B
11:09PM 31.5015 -96.1147 342° North 457 526 34,800 1,560 Climbing FlightAware ADS-B
11:09PM 31.5618 -96.1382 342° North 451 519 35,600 1,140 Climbing FlightAware ADS-B
11:10PM 31.6217 -96.1616 342° North 450 518 36,000 120 Climbing FlightAware ADS-B
11:12PM 31.8614 -96.3012 323° Northwest 438 504 36,000  Level FlightAware ADS-B
11:13PM 31.9104 -96.3447 323° Northwest 439 505 36,000  Level FlightAware ADS-B
11:13PM 31.9630 -96.3910 323° Northwest 438 504 36,000  Level FlightAware
11:13PM 31.9718 -96.3991 322° Northwest 438 504 36,000  Level FlightAware ADS-B
11:15PM 32.0888 -96.5032 323° Northwest 437 503 36,000  Level FlightAware ADS-B
11:15PM 32.1650 -96.5720 323° Northwest 434 499 36,000  Level FlightAware
11:16PM 32.2290 -96.6290 323° Northwest 432 497 36,000  Level FlightAware
11:17PM 32.2930 -96.6870 323° Northwest 430 495 36,000  Level FlightAware
11:17PM 32.3620 -96.7490 323° Northwest 428 493 36,000  Level FlightAware
11:18PM 32.4290 -96.8100 322° Northwest 428 493 36,000  Level FlightAware
11:19PM 32.4940 -96.8690 323° Northwest 427 491 36,000  Level FlightAware
11:19PM 32.5570 -96.9250 323° Northwest 426 490 36,000  Level FlightAware
11:20PM 32.6260 -96.9880 322° Northwest 424 488 36,000  Level FlightAware
11:21PM 32.6910 -97.0480 322° Northwest 424 488 36,000  Level FlightAware
11:22PM 32.7540 -97.1050 323° Northwest 434 499 36,000  Level FlightAware
11:22PM 32.8220 -97.1670 323° Northwest 435 501 36,000  Level FlightAware
11:23PM 32.8940 -97.2330 322° Northwest 436 502 36,000  Level FlightAware
11:24PM 32.9550 -97.2890 322° Northwest 437 503 36,000  Level FlightAware
11:24PM 33.0260 -97.3540 322° Northwest 437 503 36,000  Level FlightAware
11:25PM 33.0910 -97.4130 323° Northwest 436 502 36,000  Level FlightAware
11:26PM 33.1580 -97.4760 322° Northwest 437 503 36,000  Level FlightAware
11:26PM 33.2240 -97.5370 322° Northwest 438 504 36,000  Level FlightAware
11:27PM 33.2930 -97.6010 322° Northwest 438 504 36,000  Level FlightAware
11:28PM 33.3640 -97.6660 323° Northwest 438 504 36,000  Level FlightAware
11:29PM 33.4260 -97.7240 322° Northwest 438 504 36,000  Level FlightAware
11:29PM 33.5010 -97.7960 321° Northwest 438 504 36,000  Level FlightAware
11:30PM 33.5750 -97.8640 323° Northwest 434 499 36,000  Level FlightAware
11:31PM 33.6250 -97.9130 321° Northwest 434 499 36,000  Level FlightAware
11:32PM 33.6900 -97.9770 321° Northwest 434 499 36,000  Level FlightAware
11:32PM 33.7380 -98.0230 321° Northwest 434 499 36,000  Level FlightAware
11:33PM 33.8480 -98.1199 324° Northwest 427 491 36,000  Level FlightAware ADS-B
11:34PM 33.8954 -98.1646 322° Northwest 427 491 36,000  Level FlightAware ADS-B
11:34PM 33.9425 -98.2092 322° Northwest 425 489 36,000  Level FlightAware ADS-B
11:35PM 33.9897 -98.2539 322° Northwest 424 488 36,000  Level FlightAware ADS-B
11:35PM 34.0366 -98.2985 322° Northwest 424 488 36,000  Level FlightAware ADS-B
11:36PM 34.0851 -98.3446 322° Northwest 426 490 36,000  Level FlightAware ADS-B
11:36PM 34.1327 -98.3898 322° Northwest 426 490 36,000  Level FlightAware ADS-B
11:37PM 34.1803 -98.4350 322° Northwest 426 490 36,000  Level FlightAware ADS-B
11:37PM 34.2269 -98.4793 322° Northwest 425 489 36,000  Level FlightAware ADS-B
11:38PM 34.2754 -98.5257 322° Northwest 425 489 36,000  Level FlightAware ADS-B
11:38PM 34.3218 -98.5701 322° Northwest 424 488 36,000  Level FlightAware ADS-B
11:39PM 34.4011 -98.6462 322° Northwest 423 487 36,000  Level FlightAware ADS-B
11:41PM 34.5730 -98.8118 322° Northwest 422 486 36,000  Level FlightAware ADS-B
11:43PM 34.7518 -98.9845 322° Northwest 418 481 36,000  Level FlightAware ADS-B
11:44PM 34.8146 -99.0455 321° Northwest 418 481 36,000  Level FlightAware ADS-B
11:44PM 34.8876 -99.1166 321° Northwest 417 480 36,000  Level FlightAware ADS-B
11:45PM 34.9433 -99.1711 321° Northwest 417 480 36,000  Level FlightAware ADS-B
11:45PM 34.9887 -99.2155 321° Northwest 418 481 36,000  Level FlightAware ADS-B
11:46PM 35.0364 -99.2620 321° Northwest 418 481 36,000  Level FlightAware ADS-B
11:47PM 35.1053 -99.3295 321° Northwest 413 475 36,000  Level FlightAware ADS-B
11:47PM 35.1523 -99.3756 321° Northwest 411 473 36,000  Level FlightAware ADS-B
11:48PM 35.1968 -99.4195 321° Northwest 409 471 36,000  Level FlightAware ADS-B
11:48PM 35.2437 -99.4658 321° Northwest 409 471 36,000  Level FlightAware ADS-B
11:49PM 35.2884 -99.5098 321° Northwest 406 467 36,000  Level FlightAware ADS-B
11:49PM 35.3335 -99.5544 321° Northwest 405 466 36,000  Level FlightAware ADS-B
11:50PM 35.3777 -99.5981 321° Northwest 404 465 36,000  Level FlightAware ADS-B
11:50PM 35.4222 -99.6423 321° Northwest 403 464 36,000  Level FlightAware ADS-B
11:51PM 35.4698 -99.6895 321° Northwest 404 465 36,000  Level FlightAware ADS-B
11:51PM 35.5137 -99.7333 321° Northwest 407 468 36,000  Level FlightAware ADS-B
11:52PM 35.5590 -99.7783 321° Northwest 408 470 36,000  Level FlightAware ADS-B
11:53PM 35.6109 -99.8297 321° Northwest 409 471 36,000  Level FlightAware ADS-B
11:53PM 35.6615 -99.8809 321° Northwest 409 471 36,000  Level FlightAware ADS-B
11:54PM 35.7090 -99.9283 321° Northwest 407 468 36,000  Level FlightAware ADS-B
11:54PM 35.7530 -99.9721 321° Northwest 401 461 36,000  Level FlightAware ADS-B
11:55PM 35.7980 -100.0170 321° Northwest 401 461 36,000  Level FlightAware ADS-B
11:55PM 35.8491 -100.0690 320° Northwest 399 459 36,000  Level FlightAware ADS-B
11:56PM 35.8924 -100.1120 321° Northwest 399 459 36,000  Level FlightAware ADS-B
11:56PM 35.9356 -100.1560 320° Northwest 399 459 36,000  Level FlightAware ADS-B
11:57PM 35.9790 -100.2000 321° Northwest 399 459 36,000  Level FlightAware ADS-B
11:57PM 36.0246 -100.2460 321° Northwest 397 457 36,000  Level FlightAware ADS-B
11:58PM 36.0674 -100.2890 321° Northwest 396 456 36,000  Level FlightAware ADS-B
11:58PM 36.1099 -100.3320 321° Northwest 395 455 36,000  Level FlightAware ADS-B
11:59PM 36.1532 -100.3760 321° Northwest 395 455 36,000  Level FlightAware ADS-B
11:59PM 36.1954 -100.4190 321° Northwest 393 452 36,000  Level FlightAware ADS-B
12:00AM 36.2375 -100.4620 321° Northwest 392 451 36,000  Level FlightAware ADS-B
12:00AM 36.2797 -100.5050 321° Northwest 392 451 36,000  Level FlightAware ADS-B
12:01AM 36.3223 -100.5490 320° Northwest 392 451 36,000  Level FlightAware ADS-B
12:01AM 36.3654 -100.5930 321° Northwest 394 453 36,000  Level FlightAware ADS-B
12:02AM 36.4609 -100.6900 321° Northwest 396 456 36,000  Level FlightAware ADS-B
12:03AM 36.5187 -100.7500 320° Northwest 395 455 36,000  Level FlightAware ADS-B
12:04AM 36.6091 -100.8430 320° Northwest 397 457 36,000  Level FlightAware ADS-B
12:05AM 36.6524 -100.8880 320° Northwest 396 456 36,000  Level FlightAware ADS-B
12:05AM 36.6951 -100.9320 320° Northwest 396 456 36,000  Level FlightAware ADS-B
12:06AM 36.7376 -100.9760 320° Northwest 397 457 36,000  Level FlightAware ADS-B
12:06AM 36.7804 -101.0200 321° Northwest 398 458 36,000  Level FlightAware ADS-B
12:07AM 36.8227 -101.0640 320° Northwest 398 458 36,000  Level FlightAware ADS-B
12:07AM 36.8652 -101.1090 320° Northwest 400 460 36,000  Level FlightAware ADS-B
12:08AM 36.9077 -101.1530 320° Northwest 400 460 36,000  Level FlightAware ADS-B
12:08AM 36.9511 -101.1980 320° Northwest 402 463 36,000  Level FlightAware ADS-B
12:09AM 36.9942 -101.2430 320° Northwest 405 466 36,000  Level FlightAware ADS-B
12:09AM 37.0376 -101.2890 320° Northwest 407 468 36,000  Level FlightAware ADS-B
12:10AM 37.0812 -101.3350 320° Northwest 408 470 36,000  Level FlightAware ADS-B
12:10AM 37.1248 -101.3800 321° Northwest 408 470 36,000  Level FlightAware ADS-B
12:11AM 37.1682 -101.4260 320° Northwest 409 471 36,000  Level FlightAware ADS-B
12:11AM 37.2137 -101.4740 320° Northwest 406 467 36,000  Level FlightAware ADS-B
12:12AM 37.2578 -101.5210 320° Northwest 404 465 36,000  Level FlightAware ADS-B
12:12AM 37.3011 -101.5660 320° Northwest 403 464 36,000  Level FlightAware ADS-B
12:13AM 37.3660 -101.6350 320° Northwest 405 466 36,000  Level FlightAware ADS-B
12:18AM 37.7855 -102.0830 320° Northwest 400 460 36,000  Level FlightAware ADS-B
12:18AM 37.8228 -102.1240 319° Northwest 401 461 36,000  Level FlightAware ADS-B
12:19AM 37.8403 -102.1450 317° Northwest 402 463 36,000  Level FlightAware ADS-B
12:19AM 37.8786 -102.1970 313° West 403 464 36,000  Level FlightAware ADS-B
12:20AM 37.9180 -102.2500 313° West 405 466 36,000  Level FlightAware ADS-B
12:20AM 37.9559 -102.3020 313° West 408 470 36,000  Level FlightAware ADS-B
12:21AM 37.9956 -102.3550 314° West 408 470 36,000  Level FlightAware ADS-B
12:21AM 37.9974 -102.3580 307° West 409 471 36,000  Level FlightAware ADS-B
12:21AM 38.0349 -102.4090 313° West 409 471 36,000  Level FlightAware ADS-B
12:21AM 38.0368 -102.4110 320° Northwest 409 471 36,000  Level FlightAware ADS-B
12:22AM 38.0740 -102.4620 313° West 410 472 36,000  Level FlightAware ADS-B
12:22AM 38.0758 -102.4650 307° West 410 472 36,000  Level FlightAware ADS-B
12:22AM 38.1136 -102.5160 313° West 413 475 36,000  Level FlightAware ADS-B
12:22AM 38.1174 -102.5210 314° West 413 475 36,000  Level FlightAware ADS-B
12:23AM 38.1544 -102.5670 316° Northwest 414 476 36,000 -240 Level FlightAware ADS-B
12:23AM 38.1628 -102.5770 317° Northwest 414 476 35,900 -1,020 Descending FlightAware ADS-B
12:23AM 38.1964 -102.6180 316° Northwest 417 480 35,500 -1,080 Descending FlightAware ADS-B
12:23AM 38.2112 -102.6360 316° Northwest 416 479 35,300 -1,020 Descending FlightAware ADS-B
12:24AM 38.2400 -102.6720 316° Northwest 421 484 35,000 -840 Descending FlightAware ADS-B
12:24AM 38.2537 -102.6880 317° Northwest 416 479 34,900 -780 Descending FlightAware ADS-B
12:24AM 38.2827 -102.7240 316° Northwest 424 488 34,600 -1,080 Descending FlightAware ADS-B
12:25AM 38.3258 -102.7770 316° Northwest 419 482 34,000 -1,140 Descending FlightAware ADS-B
12:25AM 38.3674 -102.8280 316° Northwest 417 480 33,500 -1,020 Descending FlightAware ADS-B
12:26AM 38.4098 -102.8800 316° Northwest 419 482 33,000 -1,020 Descending FlightAware ADS-B
12:26AM 38.4520 -102.9320 316° Northwest 420 483 32,500 -1,020 Descending FlightAware ADS-B
12:27AM 38.4947 -102.9850 316° Northwest 421 484 32,000 -1,020 Descending FlightAware ADS-B
12:27AM 38.5367 -103.0370 316° Northwest 420 483 31,500 -1,020 Descending FlightAware ADS-B
12:28AM 38.5798 -103.0900 316° Northwest 422 486 31,000 -1,020 Descending FlightAware ADS-B
12:28AM 38.6222 -103.1430 316° Northwest 423 487 30,500 -1,020 Descending FlightAware ADS-B
12:29AM 38.6644 -103.1960 316° Northwest 420 483 30,000 -1,020 Descending FlightAware ADS-B
12:29AM 38.7063 -103.2480 316° Northwest 417 480 29,500 -1,020 Descending FlightAware ADS-B
12:30AM 38.7485 -103.3000 316° Northwest 415 478 29,000 -1,020 Descending FlightAware ADS-B
12:30AM 38.7900 -103.3520 316° Northwest 409 471 28,500 -1,020 Descending FlightAware ADS-B
12:31AM 38.8307 -103.4030 316° Northwest 405 466 28,000 -1,140 Descending FlightAware ADS-B
12:31AM 38.8719 -103.4550 316° Northwest 400 460 27,400 -1,140 Descending FlightAware ADS-B
12:32AM 38.9117 -103.5050 316° Northwest 396 456 26,900 -1,020 Descending FlightAware ADS-B
12:32AM 38.9512 -103.5550 315° West 395 455 26,400 -1,020 Descending FlightAware ADS-B
12:33AM 38.9903 -103.6040 316° Northwest 392 451 25,900 -1,020 Descending FlightAware ADS-B
12:33AM 39.0288 -103.6530 315° West 388 447 25,400 -1,020 Descending FlightAware ADS-B
12:34AM 39.0675 -103.7020 315° West 385 443 24,900 -1,320 Descending FlightAware ADS-B
12:34AM 39.1054 -103.7500 316° Northwest 378 435 24,100 -1,920 Descending FlightAware ADS-B
12:35AM 39.1427 -103.7970 316° Northwest 370 426 23,000 -2,100 Descending FlightAware ADS-B
12:35AM 39.1790 -103.8440 315° West 364 419 22,000 -2,040 Descending FlightAware ADS-B
12:36AM 39.2146 -103.8890 316° Northwest 358 412 21,000 -2,040 Descending FlightAware ADS-B
12:36AM 39.2496 -103.9330 316° Northwest 351 404 20,000 -1,920 Descending FlightAware ADS-B
12:37AM 39.2845 -103.9780 315° West 344 396 19,100 -1,920 Descending FlightAware ADS-B
12:37AM 39.3185 -104.0210 316° Northwest 337 388 18,100 -2,040 Descending FlightAware ADS-B
12:38AM 39.3513 -104.0640 315° West 331 381 17,100 -2,100 Descending FlightAware ADS-B
12:38AM 39.3839 -104.1050 316° Northwest 330 380 16,000 -1,980 Descending FlightAware ADS-B
12:39AM 39.4171 -104.1480 315° West 325 374 15,100 -1,200 Descending FlightAware ADS-B
12:39AM 39.4484 -104.1880 315° West 314 361 14,800 -300 Descending FlightAware ADS-B
12:40AM 39.4787 -104.2270 315° West 298 343 14,800 -300 Level FlightAware ADS-B
12:40AM 39.5086 -104.2660 315° West 311 358 14,500 -840 Descending FlightAware ADS-B
12:41AM 39.5397 -104.3060 315° West 317 365 14,000 -1,020 Descending FlightAware ADS-B
12:41AM 39.5718 -104.3470 315° West 318 366 13,500 -1,020 Descending FlightAware ADS-B
12:42AM 39.6031 -104.3880 315° West 317 365 13,000 -720 Descending FlightAware ADS-B
12:42AM 39.6343 -104.4290 315° West 317 365 12,800 -240 Descending FlightAware ADS-B
12:43AM 39.6660 -104.4700 315° West 315 362 12,800  Level FlightAware ADS-B
12:43AM 39.6972 -104.5100 315° West 315 362 12,800  Level FlightAware ADS-B
12:44AM 39.7288 -104.5510 315° West 315 362 12,800  Level FlightAware ADS-B
12:44AM 39.7416 -104.5680 314° West 314 361 12,800  Level FlightAware ADS-B
12:44AM 39.7457 -104.5730 317° Northwest 314 361 12,800 -900 Level FlightAware ADS-B
12:44AM 39.7502 -104.5770 326° Northwest 311 358 12,700 -1,500 Descending FlightAware ADS-B
12:44AM 39.7552 -104.5810 328° Northwest 312 359 12,600 -2,400 Descending FlightAware ADS-B
12:44AM 39.7632 -104.5850 339° North 317 365 12,300 -3,000 Descending FlightAware ADS-B
12:45AM 39.7704 -104.5880 342° North 321 369 12,100 -2,040 Descending FlightAware ADS-B
12:45AM 39.7758 -104.5890 352° North 322 371 12,000 -1,680 Descending FlightAware ADS-B
12:45AM 39.7859 -104.5890 360° North 322 371 11,800 -1,740 Descending FlightAware ADS-B
12:45AM 39.8334 -104.5870 North 321 369 10,900 -1,020 Descending FlightAware ADS-B
12:46AM 39.8782 -104.5860 North 307 353 10,800 -120 Descending FlightAware ADS-B
12:46AM 39.9191 -104.5860 360° North 277 319 10,800 -540 Level FlightAware ADS-B
12:47AM 39.9567 -104.5860 360° North 266 306 10,300 -1,140 Descending FlightAware ADS-B
12:47AM 39.9663 -104.5860 360° North 265 305 10,100 -1,260 Descending FlightAware ADS-B
12:47AM 39.9853 -104.5860 360° North 256 295 9,800 -1,200 Descending FlightAware ADS-B
12:48AM 40.0075 -104.5870 358° North 252 290 9,400 -1,320 Descending FlightAware ADS-B
12:48AM 40.0119 -104.5880 350° North 245 282 9,300 -1,380 Descending FlightAware ADS-B
12:48AM 40.0180 -104.5900 346° North 239 275 9,200 -720 Descending FlightAware ADS-B
12:48AM 40.0211 -104.5930 323° Northwest 232 267 9,200 -900 Level FlightAware ADS-B
12:48AM 40.0243 -104.5950 334° Northwest 229 264 9,100 -1,740 Descending FlightAware ADS-B
12:48AM 40.0274 -104.5990 315° West 226 260 9,000 -1,500 Descending FlightAware ADS-B
12:48AM 40.0298 -104.6020 316° Northwest 223 257 8,900 -1,740 Descending FlightAware ADS-B
12:48AM 40.0319 -104.6060 304° West 223 257 8,800 -3,000 Descending FlightAware ADS-B
12:48AM 40.0336 -104.6090 307° West 224 258 8,600 -2,580 Descending FlightAware ADS-B
12:48AM 40.0351 -104.6140 291° West 225 259 8,500 -2,580 Descending FlightAware ADS-B
12:48AM 40.0362 -104.6180 290° West 225 259 8,300 -2,580 Descending FlightAware ADS-B
12:48AM 40.0372 -104.6230 285° West 226 260 8,200 -2,580 Descending FlightAware ADS-B
12:48AM 40.0377 -104.6280 277° West 226 260 8,000 -2,580 Descending FlightAware ADS-B
12:48AM 40.0378 -104.6330 271° West 226 260 7,900 -1,500 Descending FlightAware ADS-B
12:48AM 40.0376 -104.6380 267° West 225 259 7,800 -2,280 Descending FlightAware ADS-B
12:48AM 40.0370 -104.6440 263° West 224 258 7,600 -2,580 Descending FlightAware ADS-B
12:48AM 40.0362 -104.6480 255° West 223 257 7,500 -1,740 Descending FlightAware ADS-B
12:49AM 40.0350 -104.6530 253° West 222 255 7,400 -1,500 Descending FlightAware ADS-B
12:49AM 40.0338 -104.6580 253° West 223 257 7,300 -780 Descending FlightAware ADS-B
12:49AM 40.0321 -104.6620 241° Southwest 223 257 7,300 -780 Level FlightAware ADS-B
12:49AM 40.0303 -104.6670 245° Southwest 217 250 7,200 -1,380 Descending FlightAware ADS-B
12:49AM 40.0275 -104.6720 234° Southwest 212 244 7,100 -780 Descending FlightAware ADS-B
12:49AM 40.0251 -104.6750 224° Southwest 207 238 7,100  Level FlightAware ADS-B
12:49AM 40.0227 -104.6780 224° Southwest 201 231 7,100 -720 Level FlightAware ADS-B
12:49AM 40.0193 -104.6820 222° Southwest 194 223 7,000 -780 Descending FlightAware ADS-B
12:49AM 40.0171 -104.6830 199° South 189 217 7,000 -1,020 Level FlightAware ADS-B
12:49AM 40.0147 -104.6850 213° Southwest 186 214 6,900 -1,020 Descending FlightAware ADS-B
12:49AM 40.0122 -104.6860 197° South 188 216 6,900  Level FlightAware ADS-B
12:49AM 40.0083 -104.6870 191° South 185 213 6,900  Level FlightAware ADS-B
12:49AM 40.0053 -104.6880 194° South 185 213 6,900 -720 Level FlightAware ADS-B
12:49AM 40.0015 -104.6870 169° South 179 206 6,800 -480 Descending FlightAware ADS-B
12:50AM 39.9947 -104.6870 180° South 175 201 6,800  Level FlightAware ADS-B
12:50AM 39.9915 -104.6870 180° South 175 201 6,800 -720 Level FlightAware ADS-B
12:50AM 39.9874 -104.6860 169° South 175 201 6,700 -540 Descending FlightAware ADS-B
12:50AM 39.9813 -104.6860 180° South 173 199 6,700 -420 Level FlightAware ADS-B
12:50AM 39.9748 -104.6860 180° South 171 197 6,600 -1,080 Descending FlightAware ADS-B
12:50AM 39.9678 -104.6860 180° South 170 196 6,400 -1,020 Descending FlightAware ADS-B
12:50AM 39.9605 -104.6860 180° South 168 193 6,300 -720 Descending FlightAware ADS-B
12:50AM 39.9549 -104.6860 180° South 167 192 6,200 -900 Descending FlightAware ADS-B
12:50AM 39.9492 -104.6860 180° South 167 192 6,100 -720 Descending FlightAware ADS-B
12:51AM 39.9422 -104.6870 186° South 167 192 6,000 -900 Descending FlightAware ADS-B
12:51AM 39.9336 -104.6870 180° South 162 186 5,800 -840 Descending FlightAware ADS-B
12:51AM 39.9241 -104.6870 180° South 161 185 5,700 -840 Descending FlightAware ADS-B
12:51AM 39.9174 -104.6870 180° South 161 185 5,500 -960 Descending FlightAware ADS-B
12:51AM 39.9061 -104.6870 180° South 162 186 5,300 -780 Descending FlightAware ADS-B
12:52AM 39.8994 -104.6870 180° South 162 186 5,200 -720 Descending FlightAware ADS-B
12:52AM 39.8934 -104.6870 180° South 162 186 5,100 -780 Descending FlightAware ADS-B